Time;durP1;ratioP1;P1;durP2;ratioP2;P2;SDS_P1;SDS_P2;PMS_P1;PMS_P2;Temp;Humidity;BMP_temperature;BMP_pressure;BME280_temperature;BME280_humidity;BME280_pressure;Samples;Min_cycle;Max_cycle;Signal;HPM_P1;HPM_P2
2022/01/14 00:01:33;;;;;;;;;;;12.40;99.90;;;;;;5053126;28;20370;-66
2022/01/14 00:03:59;;;;;;;;;;;12.60;99.90;;;;;;5053463;28;19997;-64
2022/01/14 00:06:25;;;;;;;;;;;12.60;99.90;;;;;;5053926;28;19925;-60
2022/01/14 00:08:50;;;;;;;;;;;12.50;99.90;;;;;;5052256;28;20007;-61
2022/01/14 00:11:18;;;;;;;;;;;12.40;99.90;;;;;;5057179;28;19920;-63
2022/01/14 00:16:09;;;;;;;;;;;12.50;99.90;;;;;;5056880;28;19963;-61
2022/01/14 00:18:35;;;;;;;;;;;12.50;99.90;;;;;;5050400;28;19921;-67
2022/01/14 00:21:01;;;;;;;;;;;12.30;99.90;;;;;;5050330;28;19974;-66
2022/01/14 00:23:31;;;;;;;;;;;12.30;99.90;;;;;;5043273;28;20334;-61
2022/01/14 00:31:42;;;;;;;;;;;;;;;;;;5042500;28;20301;-62
2022/01/14 00:34:08;;;;;;;;;;;12.30;99.90;;;;;;5057001;28;19921;-66
2022/01/14 00:36:34;;;;;;;;;;;12.20;99.90;;;;;;5056165;28;20401;-62
2022/01/14 00:39:00;;;;;;;;;;;12.40;99.90;;;;;;5056398;28;19920;-62
2022/01/14 00:41:25;;;;;;;;;;;12.40;99.90;;;;;;5055589;28;19921;-61
2022/01/14 00:43:57;;;;;;;;;;;12.40;99.90;;;;;;5057029;28;19944;-61
2022/01/14 00:46:23;;;;;;;;;;;12.30;99.90;;;;;;5038403;28;19929;-62
2022/01/14 00:48:48;;;;;;;;;;;12.10;99.90;;;;;;5056573;28;20386;-60
2022/01/14 00:51:14;;;;;;;;;;;;;;;;;;5062318;28;19920;-61
2022/01/14 00:53:40;;;;;;;;;;;12.40;99.90;;;;;;5055070;28;20296;-67
2022/01/14 00:56:19;;;;;;;;;;;12.30;99.90;;;;;;5056153;28;20007;-67
2022/01/14 01:01:29;;;;;;;;;;;12.50;99.90;;;;;;5053795;28;19928;-67
2022/01/14 01:03:54;;;;;;;;;;;12.30;99.90;;;;;;5056424;28;19921;-67
2022/01/14 01:06:20;;;;;;;;;;;12.50;99.90;;;;;;5041798;28;19974;-67
2022/01/14 01:08:48;;;;;;;;;;;12.40;99.90;;;;;;5041143;28;20363;-67
2022/01/14 01:11:14;;;;;;;;;;;;;;;;;;5051173;28;19920;-67
2022/01/14 01:13:47;;;;;;;;;;;12.50;99.90;;;;;;5038360;28;19921;-67
2022/01/14 01:16:13;;;;;;;;;;;12.20;99.90;;;;;;5053027;28;19927;-67
2022/01/14 01:18:39;;;;;;;;;;;12.20;99.90;;;;;;5036077;28;19920;-66
2022/01/14 01:21:04;;;;;;;;;;;12.30;99.90;;;;;;5055951;28;19921;-67
2022/01/14 01:23:30;;;;;;;;;;;12.50;99.90;;;;;;5053579;28;19921;-60
2022/01/14 01:26:04;;;;;;;;;;;12.20;99.90;;;;;;5019479;28;19921;-60
2022/01/14 01:28:32;;;;;;;;;;;12.40;99.90;;;;;;5050331;28;19927;-62
2022/01/14 01:33:26;;;;;;;;;;;12.40;99.90;;;;;;5048939;28;20329;-61
2022/01/14 01:35:52;;;;;;;;;;;;;;;;;;5056111;28;19920;-62
2022/01/14 01:38:17;;;;;;;;;;;12.20;99.90;;;;;;5054821;28;19928;-61
2022/01/14 01:40:44;;;;;;;;;;;12.40;99.90;;;;;;5056274;28;19921;-62
2022/01/14 01:43:10;;;;;;;;;;;12.30;99.90;;;;;;5054649;28;19921;-61
2022/01/14 01:45:35;;;;;;;;;;;12.50;99.90;;;;;;5038116;28;20405;-61
2022/01/14 01:48:01;;;;;;;;;;;;;;;;;;5055203;28;20330;-62
2022/01/14 01:50:28;;;;;;;;;;;12.10;99.90;;;;;;5054979;28;19921;-61
2022/01/14 01:52:54;;;;;;;;;;;12.30;99.90;;;;;;5046061;28;19928;-66
2022/01/14 01:55:20;;;;;;;;;;;12.60;99.90;;;;;;5042224;28;20401;-61
2022/01/14 01:57:47;;;;;;;;;;;12.60;99.90;;;;;;5054792;28;19921;-62
2022/01/14 02:00:13;;;;;;;;;;;12.50;99.90;;;;;;5055278;28;19935;-61
2022/01/14 02:02:38;;;;;;;;;;;12.30;99.90;;;;;;5055101;28;19956;-61
2022/01/14 02:05:04;;;;;;;;;;;12.60;99.90;;;;;;5047611;28;20369;-66
2022/01/14 02:07:33;;;;;;;;;;;12.60;99.90;;;;;;5039382;28;19974;-67
2022/01/14 02:09:59;;;;;;;;;;;;;;;;;;5042380;28;20008;-66
2022/01/14 02:12:25;;;;;;;;;;;12.70;99.90;;;;;;5043117;28;19963;-67
2022/01/14 02:15:08;;;;;;;;;;;;;;;;;;5054481;28;19917;-66
2022/01/14 02:17:47;;;;;;;;;;;12.40;99.90;;;;;;5052062;28;19936;-66
2022/01/14 02:22:58;;;;;;;;;;;12.30;99.90;;;;;;5042410;28;19925;-61
2022/01/14 02:25:32;;;;;;;;;;;12.30;99.90;;;;;;5034921;28;19921;-61
2022/01/14 02:28:02;;;;;;;;;;;12.20;99.90;;;;;;5023738;28;19927;-61
2022/01/14 02:30:28;;;;;;;;;;;12.30;99.90;;;;;;5046920;28;19921;-60
2022/01/14 02:32:54;;;;;;;;;;;12.20;99.90;;;;;;5051187;28;19967;-61
2022/01/14 02:35:20;;;;;;;;;;;12.50;99.90;;;;;;5058077;28;20003;-61
2022/01/14 02:37:45;;;;;;;;;;;12.40;99.90;;;;;;5032188;28;19920;-61
2022/01/14 02:40:11;;;;;;;;;;;;;;;;;;5031303;28;19943;-61
2022/01/14 02:42:37;;;;;;;;;;;12.20;99.90;;;;;;5048830;28;19948;-61
2022/01/14 02:45:06;;;;;;;;;;;12.30;99.90;;;;;;5036907;28;19921;-60
2022/01/14 02:47:32;;;;;;;;;;;;;;;;;;5036198;28;20282;-64
2022/01/14 02:49:58;;;;;;;;;;;;;;;;;;5036343;28;19924;-64
2022/01/14 02:52:41;;;;;;;;;;;12.50;99.90;;;;;;5052999;28;19968;-60
2022/01/14 02:55:15;;;;;;;;;;;12.30;99.90;;;;;;5039316;28;20016;-62
2022/01/14 02:57:44;;;;;;;;;;;12.40;99.90;;;;;;5047181;28;20453;-61
2022/01/14 03:00:10;;;;;;;;;;;12.40;99.90;;;;;;5050026;28;20425;-62
2022/01/14 03:02:36;;;;;;;;;;;12.20;99.90;;;;;;5054001;28;19935;-61
2022/01/14 03:05:02;;;;;;;;;;;12.30;99.90;;;;;;5053721;28;20320;-67
2022/01/14 03:07:28;;;;;;;;;;;12.40;99.90;;;;;;5048383;28;19921;-67
2022/01/14 03:09:53;;;;;;;;;;;12.30;99.90;;;;;;5041527;28;20378;-66
2022/01/14 03:12:19;;;;;;;;;;;12.20;99.90;;;;;;5045133;28;19921;-67
2022/01/14 03:14:45;;;;;;;;;;;12.20;99.90;;;;;;5031005;28;20434;-67
2022/01/14 03:17:11;;;;;;;;;;;12.10;99.90;;;;;;5048469;28;20294;-66
2022/01/14 03:19:37;;;;;;;;;;;12.20;99.90;;;;;;5040573;28;19965;-66
2022/01/14 03:22:29;;;;;;;;;;;;;;;;;;5048706;28;19920;-61
2022/01/14 03:27:15;;;;;;;;;;;12.40;99.90;;;;;;5052022;28;19920;-61
2022/01/14 03:29:40;;;;;;;;;;;12.40;99.90;;;;;;5053151;28;19975;-60
2022/01/14 03:32:06;;;;;;;;;;;;;;;;;;5038323;28;19940;-65
2022/01/14 03:34:32;;;;;;;;;;;12.20;99.90;;;;;;5053578;28;19927;-60
2022/01/14 03:36:58;;;;;;;;;;;12.40;99.90;;;;;;5053827;28;19924;-61
2022/01/14 03:39:24;;;;;;;;;;;12.30;99.90;;;;;;5052336;28;19925;-59
2022/01/14 03:41:49;;;;;;;;;;;12.40;99.90;;;;;;5033350;28;20003;-60
2022/01/14 03:44:15;;;;;;;;;;;12.40;99.90;;;;;;5045433;28;19921;-60
2022/01/14 03:46:41;;;;;;;;;;;12.40;99.90;;;;;;5033955;28;19921;-60
2022/01/14 03:49:06;;;;;;;;;;;12.60;99.90;;;;;;5040185;28;20390;-62
2022/01/14 03:51:32;;;;;;;;;;;12.40;99.90;;;;;;5033408;28;20378;-61
2022/01/14 03:53:58;;;;;;;;;;;12.40;99.90;;;;;;5049262;28;19921;-66
2022/01/14 03:56:25;;;;;;;;;;;;;;;;;;5053217;28;19921;-66
2022/01/14 03:58:51;;;;;;;;;;;12.30;99.90;;;;;;5037637;28;19927;-66
2022/01/14 04:01:18;;;;;;;;;;;12.40;99.90;;;;;;5041355;28;20015;-66
2022/01/14 04:03:44;;;;;;;;;;;12.40;99.90;;;;;;5057642;28;20378;-66
2022/01/14 04:06:13;;;;;;;;;;;12.40;99.90;;;;;;5043519;28;19972;-61
2022/01/14 04:08:38;;;;;;;;;;;12.20;99.90;;;;;;5017066;28;20019;-60
2022/01/14 04:11:04;;;;;;;;;;;12.30;99.90;;;;;;5053374;28;19972;-61
2022/01/14 04:16:01;;;;;;;;;;;12.50;99.90;;;;;;5052811;28;20301;-61
2022/01/14 04:18:27;;;;;;;;;;;;;;;;;;5052631;28;19921;-60
2022/01/14 04:20:53;;;;;;;;;;;12.40;99.90;;;;;;5052252;28;19920;-61
2022/01/14 04:23:21;;;;;;;;;;;12.60;99.90;;;;;;5041708;28;19921;-60
2022/01/14 04:25:53;;;;;;;;;;;12.50;99.90;;;;;;5050312;28;20016;-61
2022/01/14 04:28:23;;;;;;;;;;;12.20;99.90;;;;;;5037421;28;19944;-60
2022/01/14 04:30:54;;;;;;;;;;;12.30;99.90;;;;;;5052652;28;19971;-60
2022/01/14 04:33:20;;;;;;;;;;;12.40;99.90;;;;;;5047724;28;19925;-60
2022/01/14 04:35:45;;;;;;;;;;;12.50;99.90;;;;;;5046570;28;20436;-60
2022/01/14 04:38:11;;;;;;;;;;;12.40;99.90;;;;;;5053256;28;19921;-62
2022/01/14 04:40:36;;;;;;;;;;;12.50;99.90;;;;;;5051705;28;19979;-60
2022/01/14 04:43:02;;;;;;;;;;;12.40;99.90;;;;;;5035307;28;19960;-59
2022/01/14 04:48:03;;;;;;;;;;;12.40;99.90;;;;;;5034308;28;19925;-61
2022/01/14 04:50:29;;;;;;;;;;;;;;;;;;5049552;28;20289;-66
2022/01/14 04:52:55;;;;;;;;;;;12.30;99.90;;;;;;5055498;28;19920;-66
2022/01/14 04:55:22;;;;;;;;;;;12.30;99.90;;;;;;5038432;28;19923;-60
2022/01/14 04:57:48;;;;;;;;;;;12.10;99.90;;;;;;5043700;28;19974;-66
2022/01/14 05:00:14;;;;;;;;;;;12.40;99.90;;;;;;5054941;28;20370;-66
2022/01/14 05:02:40;;;;;;;;;;;12.40;99.90;;;;;;5036790;28;19920;-66
2022/01/14 05:05:06;;;;;;;;;;;12.50;99.90;;;;;;5055746;28;20047;-66
2022/01/14 05:07:32;;;;;;;;;;;12.30;99.90;;;;;;5061812;28;19920;-66
2022/01/14 05:10:16;;;;;;;;;;;12.30;99.90;;;;;;5056632;28;19961;-66
2022/01/14 05:12:42;;;;;;;;;;;12.40;99.90;;;;;;5036619;28;19925;-66
2022/01/14 05:15:08;;;;;;;;;;;12.20;99.90;;;;;;5048354;28;19920;-66
2022/01/14 05:17:33;;;;;;;;;;;12.40;99.90;;;;;;5054738;28;19927;-66
2022/01/14 05:19:59;;;;;;;;;;;;;;;;;;5054587;28;20420;-66
2022/01/14 05:22:25;;;;;;;;;;;12.50;99.90;;;;;;5055435;28;19920;-59
2022/01/14 05:24:51;;;;;;;;;;;12.20;99.90;;;;;;5054903;28;19943;-60
2022/01/14 05:27:17;;;;;;;;;;;;;;;;;;5055601;28;19925;-61
2022/01/14 05:29:43;;;;;;;;;;;12.20;99.90;;;;;;5052913;28;20007;-60
2022/01/14 05:32:12;;;;;;;;;;;;;;;;;;5043702;28;20012;-61
2022/01/14 05:34:39;;;;;;;;;;;12.30;99.90;;;;;;5055007;28;19928;-60
2022/01/14 05:37:05;;;;;;;;;;;12.30;99.90;;;;;;5055101;28;19921;-60
2022/01/14 05:39:30;;;;;;;;;;;12.40;99.90;;;;;;5057678;28;19975;-61
2022/01/14 05:41:57;;;;;;;;;;;12.70;99.90;;;;;;5065105;28;19924;-59
2022/01/14 05:44:26;;;;;;;;;;;12.20;99.90;;;;;;5054081;28;19923;-61
2022/01/14 05:46:52;;;;;;;;;;;12.60;99.90;;;;;;5055076;28;19920;-60
2022/01/14 05:49:26;;;;;;;;;;;12.50;99.90;;;;;;5047972;28;19916;-60
2022/01/14 05:51:52;;;;;;;;;;;12.60;99.90;;;;;;5055064;28;19920;-66
2022/01/14 05:54:18;;;;;;;;;;;12.40;99.90;;;;;;5051536;28;19917;-66
2022/01/14 05:56:44;;;;;;;;;;;12.50;99.90;;;;;;5035758;28;19975;-66
2022/01/14 05:59:10;;;;;;;;;;;12.50;99.90;;;;;;5042654;28;20374;-66
2022/01/14 06:01:36;;;;;;;;;;;;;;;;;;5035414;28;20383;-66
2022/01/14 06:04:02;;;;;;;;;;;12.40;99.90;;;;;;5052756;28;19921;-66
2022/01/14 06:06:28;;;;;;;;;;;12.50;99.90;;;;;;5053640;28;20023;-66
2022/01/14 06:08:53;;;;;;;;;;;12.50;99.90;;;;;;5042646;28;19921;-66
2022/01/14 06:11:19;;;;;;;;;;;12.30;99.90;;;;;;5039043;28;19921;-66
2022/01/14 06:13:45;;;;;;;;;;;;;;;;;;5049794;28;19928;-66
2022/01/14 06:16:11;;;;;;;;;;;12.60;99.90;;;;;;5040292;28;19967;-66
2022/01/14 06:18:36;;;;;;;;;;;12.40;99.90;;;;;;5043925;28;20465;-66
2022/01/14 06:21:02;;;;;;;;;;;12.30;99.90;;;;;;5045602;28;19921;-66
2022/01/14 06:23:27;;;;;;;;;;;12.60;99.90;;;;;;5071159;28;20017;-67
2022/01/14 06:25:53;;;;;;;;;;;;;;;;;;5036919;28;19920;-67
2022/01/14 06:28:19;;;;;;;;;;;;;;;;;;5034827;28;20313;-66
2022/01/14 06:30:45;;;;;;;;;;;12.20;99.90;;;;;;5054463;28;19936;-66
2022/01/14 06:33:11;;;;;;;;;;;12.50;99.90;;;;;;5044410;28;19921;-66
2022/01/14 06:35:36;;;;;;;;;;;12.50;99.90;;;;;;5054523;28;19924;-66
2022/01/14 06:38:02;;;;;;;;;;;;;;;;;;5053745;28;19925;-65
2022/01/14 06:40:28;;;;;;;;;;;12.60;99.90;;;;;;5034513;28;19920;-64
2022/01/14 06:42:54;;;;;;;;;;;12.50;99.90;;;;;;5036801;28;19921;-64
2022/01/14 06:45:20;;;;;;;;;;;;;;;;;;5052380;28;20062;-68
2022/01/14 06:47:45;;;;;;;;;;;12.60;99.90;;;;;;5041720;28;20291;-66
2022/01/14 06:50:11;;;;;;;;;;;;;;;;;;5041795;28;19935;-66
2022/01/14 06:52:37;;;;;;;;;;;12.70;99.90;;;;;;5041381;28;20326;-61
2022/01/14 06:55:03;;;;;;;;;;;;;;;;;;5034392;28;19928;-64
2022/01/14 06:57:29;;;;;;;;;;;;;;;;;;5051984;28;19920;-61
2022/01/14 06:59:55;;;;;;;;;;;;;;;;;;5052750;28;19927;-63
2022/01/14 07:02:21;;;;;;;;;;;12.40;99.90;;;;;;5051087;28;19920;-61
2022/01/14 07:04:46;;;;;;;;;;;12.60;99.90;;;;;;5036282;28;19970;-62
2022/01/14 07:07:12;;;;;;;;;;;;;;;;;;5044625;28;19920;-62
2022/01/14 07:09:55;;;;;;;;;;;12.70;99.90;;;;;;5054105;28;19917;-61
2022/01/14 07:12:24;;;;;;;;;;;12.40;99.90;;;;;;5037645;28;19936;-63
2022/01/14 07:14:50;;;;;;;;;;;12.50;99.90;;;;;;5054266;28;19921;-64
2022/01/14 07:17:16;;;;;;;;;;;12.50;99.90;;;;;;5051495;28;19958;-62
2022/01/14 07:19:41;;;;;;;;;;;12.80;99.90;;;;;;5035940;28;19927;-64
2022/01/14 07:22:07;;;;;;;;;;;12.90;99.90;;;;;;5049459;28;20073;-63
2022/01/14 07:24:33;;;;;;;;;;;12.50;99.90;;;;;;5053919;28;20328;-62
2022/01/14 07:26:59;;;;;;;;;;;;;;;;;;5045360;28;19920;-64
2022/01/14 07:29:24;;;;;;;;;;;12.90;99.90;;;;;;5049951;28;20425;-62
2022/01/14 07:31:51;;;;;;;;;;;12.40;99.80;;;;;;5034047;28;19921;-63
2022/01/14 07:34:17;;;;;;;;;;;12.60;99.80;;;;;;5035191;28;19940;-63
2022/01/14 07:36:43;;;;;;;;;;;12.60;99.70;;;;;;5050797;28;20022;-63
2022/01/14 07:39:08;;;;;;;;;;;12.80;99.70;;;;;;5053900;28;19925;-62
2022/01/14 07:41:34;;;;;;;;;;;12.80;99.80;;;;;;5052877;28;20386;-63
2022/01/14 07:44:00;;;;;;;;;;;12.80;99.80;;;;;;5049682;28;19948;-62
2022/01/14 07:46:26;;;;;;;;;;;12.80;99.80;;;;;;5040629;28;19925;-63
2022/01/14 07:48:52;;;;;;;;;;;12.70;99.70;;;;;;5040128;28;19991;-64
2022/01/14 07:51:17;;;;;;;;;;;12.70;99.80;;;;;;5033697;28;19928;-62
2022/01/14 07:53:43;;;;;;;;;;;12.60;99.70;;;;;;5055930;28;19921;-62
2022/01/14 07:56:11;;;;;;;;;;;;;;;;;;5073880;28;19920;-63
2022/01/14 07:58:37;;;;;;;;;;;12.70;99.70;;;;;;5055838;28;19925;-63
2022/01/14 08:01:04;;;;;;;;;;;12.80;99.70;;;;;;5035282;28;19967;-62
2022/01/14 08:03:30;;;;;;;;;;;12.80;99.70;;;;;;5040363;28;19916;-63
2022/01/14 08:05:57;;;;;;;;;;;12.50;99.60;;;;;;5054010;28;19931;-63
2022/01/14 08:08:23;;;;;;;;;;;12.90;99.70;;;;;;5042230;28;19921;-61
2022/01/14 08:10:49;;;;;;;;;;;12.90;99.70;;;;;;5053660;28;19927;-62
2022/01/14 08:13:14;;;;;;;;;;;12.90;99.70;;;;;;5053692;28;19921;-63
2022/01/14 08:15:40;;;;;;;;;;;12.60;99.60;;;;;;5052168;28;20428;-62
2022/01/14 08:18:06;;;;;;;;;;;13.00;99.70;;;;;;5053572;28;19925;-63
2022/01/14 08:20:32;;;;;;;;;;;;;;;;;;5046457;28;19921;-63
2022/01/14 08:22:58;;;;;;;;;;;13.00;99.70;;;;;;5046889;28;19921;-63
2022/01/14 08:25:24;;;;;;;;;;;12.70;99.50;;;;;;5051437;28;19928;-62
2022/01/14 08:27:50;;;;;;;;;;;12.60;99.60;;;;;;5055795;28;20374;-62
2022/01/14 08:30:15;;;;;;;;;;;12.70;99.50;;;;;;5032387;28;20506;-63
2022/01/14 08:32:41;;;;;;;;;;;12.70;99.60;;;;;;5037776;28;20388;-63
2022/01/14 08:35:07;;;;;;;;;;;12.70;99.50;;;;;;5040905;28;19925;-63
2022/01/14 08:37:33;;;;;;;;;;;;;;;;;;5051882;28;19928;-62
2022/01/14 08:39:59;;;;;;;;;;;12.70;99.50;;;;;;5039318;28;19928;-62
2022/01/14 08:42:25;;;;;;;;;;;12.70;99.40;;;;;;5054093;28;19920;-65
2022/01/14 08:44:51;;;;;;;;;;;;;;;;;;5051059;28;19921;-66
2022/01/14 08:47:16;;;;;;;;;;;12.90;99.50;;;;;;5046554;28;20393;-65
2022/01/14 08:49:42;;;;;;;;;;;13.00;99.50;;;;;;5025463;28;19921;-65
2022/01/14 08:52:08;;;;;;;;;;;12.70;99.50;;;;;;5050365;28;19971;-65
2022/01/14 08:54:34;;;;;;;;;;;12.80;99.40;;;;;;5046291;28;19927;-65
2022/01/14 08:57:02;;;;;;;;;;;13.00;99.40;;;;;;5048367;28;19925;-66
2022/01/14 08:59:28;;;;;;;;;;;12.80;99.50;;;;;;5055381;28;20007;-65
2022/01/14 09:01:53;;;;;;;;;;;13.00;99.50;;;;;;5056400;28;20447;-63
2022/01/14 09:04:19;;;;;;;;;;;13.00;99.50;;;;;;5030531;28;20024;-65
2022/01/14 09:06:45;;;;;;;;;;;12.90;99.50;;;;;;5047920;28;20007;-65
2022/01/14 09:09:10;;;;;;;;;;;12.60;99.40;;;;;;5055415;28;19921;-67
2022/01/14 09:11:36;;;;;;;;;;;12.80;99.50;;;;;;5050076;28;20302;-66
2022/01/14 09:14:02;;;;;;;;;;;13.00;99.60;;;;;;5052885;28;19929;-66
2022/01/14 09:16:27;;;;;;;;;;;12.50;99.50;;;;;;5057240;28;19921;-63
2022/01/14 09:18:53;;;;;;;;;;;12.80;99.50;;;;;;5034163;28;19964;-63
2022/01/14 09:21:19;;;;;;;;;;;12.90;99.60;;;;;;5037664;28;19921;-62
2022/01/14 09:23:51;;;;;;;;;;;12.70;99.60;;;;;;5036235;28;19917;-63
2022/01/14 09:26:17;;;;;;;;;;;12.80;99.60;;;;;;5041102;28;19920;-65
2022/01/14 09:28:43;;;;;;;;;;;12.70;99.50;;;;;;5038833;28;19921;-63
2022/01/14 09:31:09;;;;;;;;;;;;;;;;;;5036179;28;19928;-62
2022/01/14 09:33:35;;;;;;;;;;;12.90;99.60;;;;;;5055875;28;19928;-62
2022/01/14 09:36:01;;;;;;;;;;;;;;;;;;5039438;28;19928;-64
2022/01/14 09:38:27;;;;;;;;;;;12.70;99.50;;;;;;5034785;28;20357;-65
2022/01/14 09:40:52;;;;;;;;;;;12.80;99.60;;;;;;5054013;28;20045;-60
2022/01/14 09:43:19;;;;;;;;;;;13.00;99.60;;;;;;5030855;28;19930;-62
2022/01/14 09:45:44;;;;;;;;;;;12.80;99.50;;;;;;5045539;28;19928;-65
2022/01/14 09:48:13;;;;;;;;;;;12.70;99.50;;;;;;5036073;28;19921;-65
2022/01/14 09:50:39;;;;;;;;;;;;;;;;;;5040792;28;19921;-65
2022/01/14 09:53:05;;;;;;;;;;;12.90;99.30;;;;;;5051744;28;19925;-66
2022/01/14 09:55:30;;;;;;;;;;;12.90;99.10;;;;;;5068772;28;19933;-63
2022/01/14 09:57:57;;;;;;;;;;;12.80;99.30;;;;;;5043698;28;20460;-63
2022/01/14 10:00:23;;;;;;;;;;;12.80;99.30;;;;;;5056496;28;19920;-62
2022/01/14 10:02:51;;;;;;;;;;;12.90;99.50;;;;;;5052239;28;19969;-64
2022/01/14 10:05:30;;;;;;;;;;;12.80;99.40;;;;;;5055140;28;19925;-63
2022/01/14 10:08:08;;;;;;;;;;;13.10;99.50;;;;;;5048014;28;20393;-63
2022/01/14 10:10:37;;;;;;;;;;;12.70;99.40;;;;;;5056522;28;19933;-65
2022/01/14 10:13:10;;;;;;;;;;;12.80;99.30;;;;;;5039324;28;20348;-62
2022/01/14 10:15:41;;;;;;;;;;;12.80;99.40;;;;;;5070190;28;19928;-60
2022/01/14 10:18:07;;;;;;;;;;;12.80;99.50;;;;;;5054247;28;20014;-61
2022/01/14 10:20:36;;;;;;;;;;;12.90;99.50;;;;;;5025919;28;19959;-61
2022/01/14 10:23:02;;;;;;;;;;;12.90;99.40;;;;;;5063320;28;19968;-61
2022/01/14 10:25:27;;;;;;;;;;;12.80;99.40;;;;;;5070900;28;20010;-62
2022/01/14 10:27:54;;;;;;;;;;;12.90;99.50;;;;;;5053469;28;19924;-61
2022/01/14 10:30:19;;;;;;;;;;;12.70;99.50;;;;;;5055012;28;19920;-61
2022/01/14 10:32:46;;;;;;;;;;;13.00;99.60;;;;;;5048284;28;20016;-60
2022/01/14 10:35:16;;;;;;;;;;;12.90;99.60;;;;;;5037120;28;20290;-61
2022/01/14 10:37:42;;;;;;;;;;;;;;;;;;5021979;28;19921;-61
2022/01/14 10:40:35;;;;;;;;;;;12.80;99.50;;;;;;5034782;28;19948;-61
2022/01/14 10:43:00;;;;;;;;;;;13.20;99.60;;;;;;5049801;28;19920;-61
2022/01/14 10:45:27;;;;;;;;;;;13.20;99.60;;;;;;5054794;28;20126;-60
2022/01/14 10:47:54;;;;;;;;;;;13.00;99.60;;;;;;5053827;28;20286;-61
2022/01/14 10:50:26;;;;;;;;;;;13.00;99.60;;;;;;5034876;28;19928;-62
2022/01/14 10:52:52;;;;;;;;;;;;;;;;;;5040091;28;19921;-66
2022/01/14 10:55:32;;;;;;;;;;;12.90;99.60;;;;;;5034728;28;19944;-66
2022/01/14 10:57:58;;;;;;;;;;;13.00;99.60;;;;;;5036604;28;19921;-66
2022/01/14 11:00:24;;;;;;;;;;;13.10;99.60;;;;;;5034416;28;19991;-65
2022/01/14 11:02:49;;;;;;;;;;;13.20;99.60;;;;;;5047077;28;20019;-65
2022/01/14 11:05:15;;;;;;;;;;;13.10;99.60;;;;;;5054114;28;20370;-65
2022/01/14 11:07:41;;;;;;;;;;;13.00;99.60;;;;;;5053408;28;20055;-65
2022/01/14 11:10:19;;;;;;;;;;;13.10;99.60;;;;;;5052980;28;20394;-65
2022/01/14 11:12:45;;;;;;;;;;;13.20;99.60;;;;;;5043863;28;19977;-66
2022/01/14 11:15:10;;;;;;;;;;;13.00;99.50;;;;;;5051824;28;20393;-65
2022/01/14 11:17:37;;;;;;;;;;;;;;;;;;5047534;28;19921;-66
2022/01/14 11:20:03;;;;;;;;;;;13.30;99.40;;;;;;5033981;28;19933;-66
2022/01/14 11:25:13;;;;;;;;;;;12.80;99.60;;;;;;5053091;28;19920;-65
2022/01/14 11:27:38;;;;;;;;;;;13.00;99.60;;;;;;5046974;28;19928;-65
2022/01/14 11:30:05;;;;;;;;;;;12.90;99.70;;;;;;5016586;28;20272;-65
2022/01/14 11:33:09;;;;;;;;;;;13.30;99.70;;;;;;5030299;28;19921;-65
2022/01/14 11:35:36;;;;;;;;;;;13.10;99.60;;;;;;4971861;28;19922;-65
2022/01/14 11:38:02;;;;;;;;;;;13.00;99.70;;;;;;4972937;28;20069;-65
2022/01/14 11:40:44;;;;;;;;;;;13.00;99.70;;;;;;4971018;28;20016;-65
2022/01/14 11:43:10;;;;;;;;;;;13.00;99.70;;;;;;4972572;28;19994;-63
2022/01/14 11:45:39;;;;;;;;;;;13.00;99.70;;;;;;4971502;28;19933;-65
2022/01/14 11:48:04;;;;;;;;;;;13.00;99.60;;;;;;4973136;28;19925;-65
2022/01/14 11:50:30;;;;;;;;;;;13.20;99.70;;;;;;4965962;28;19922;-65
2022/01/14 11:52:58;;;;;;;;;;;13.00;99.70;;;;;;4962295;28;19928;-65
2022/01/14 11:55:23;;;;;;;;;;;13.00;99.70;;;;;;4971803;28;19922;-66
2022/01/14 11:57:53;;;;;;;;;;;13.10;99.70;;;;;;4957275;28;20311;-60
2022/01/14 12:00:27;;;;;;;;;;;13.00;99.60;;;;;;4976014;28;19922;-69
2022/01/14 12:02:53;;;;;;;;;;;;;;;;;;4956761;28;19923;-62
2022/01/14 12:05:20;;;;;;;;;;;;;;;;;;4979692;28;19929;-64
2022/01/14 12:08:01;;;;;;;;;;;13.00;99.70;;;;;;5047969;28;20301;-65
2022/01/14 12:10:30;;;;;;;;;;;12.90;99.70;;;;;;5056824;28;19920;-66
2022/01/14 12:13:15;;;;;;;;;;;12.90;99.70;;;;;;5048959;28;19976;-65
2022/01/14 12:15:41;;;;;;;;;;;;;;;;;;5038320;28;20016;-64
2022/01/14 12:18:09;;;;;;;;;;;13.00;99.60;;;;;;5040045;28;20051;-64
2022/01/14 12:20:35;;;;;;;;;;;;;;;;;;5044218;28;19928;-65
2022/01/14 12:23:04;;;;;;;;;;;13.10;99.60;;;;;;5045864;28;19920;-65
2022/01/14 12:25:50;;;;;;;;;;;13.10;99.80;;;;;;5050637;28;20008;-64
2022/01/14 12:28:19;;;;;;;;;;;13.00;99.70;;;;;;5054708;28;20019;-66
2022/01/14 12:30:57;;;;;;;;;;;12.90;99.80;;;;;;5035136;28;19924;-63
2022/01/14 12:33:23;;;;;;;;;;;;;;;;;;5038674;28;19967;-64
2022/01/14 12:35:49;;;;;;;;;;;13.00;99.80;;;;;;5044300;28;19987;-63
2022/01/14 12:38:15;;;;;;;;;;;;;;;;;;5054198;28;19920;-66
2022/01/14 12:40:41;;;;;;;;;;;13.10;99.80;;;;;;5031759;28;19936;-63
2022/01/14 12:43:09;;;;;;;;;;;12.80;99.70;;;;;;5052077;28;19924;-65
2022/01/14 12:45:36;;;;;;;;;;;13.10;99.70;;;;;;5049392;28;19943;-62
2022/01/14 12:48:05;;;;;;;;;;;12.90;99.60;;;;;;5045761;28;19921;-62
2022/01/14 12:50:30;;;;;;;;;;;13.10;99.80;;;;;;5046122;28;19921;-63
2022/01/14 12:52:56;;;;;;;;;;;13.10;99.80;;;;;;5046573;28;19927;-64
2022/01/14 12:55:22;;;;;;;;;;;;;;;;;;5045464;28;19928;-64
2022/01/14 12:57:48;;;;;;;;;;;13.20;99.70;;;;;;5049376;28;19921;-64
2022/01/14 13:00:14;;;;;;;;;;;;;;;;;;5039967;28;20333;-66
2022/01/14 13:02:40;;;;;;;;;;;13.10;99.60;;;;;;5043438;28;20338;-64
2022/01/14 13:05:06;;;;;;;;;;;13.00;99.70;;;;;;5037838;28;19933;-65
2022/01/14 13:07:32;;;;;;;;;;;13.00;99.70;;;;;;5044778;28;19921;-61
2022/01/14 13:09:58;;;;;;;;;;;13.20;99.70;;;;;;5046498;28;19928;-63
2022/01/14 13:12:29;;;;;;;;;;;13.30;99.70;;;;;;5037828;28;20339;-62
2022/01/14 13:14:59;;;;;;;;;;;;;;;;;;5040020;28;19921;-66
2022/01/14 13:17:33;;;;;;;;;;;13.00;99.70;;;;;;5040798;28;19921;-69
2022/01/14 13:20:12;;;;;;;;;;;13.30;99.80;;;;;;5036514;28;19928;-65
2022/01/14 13:22:38;;;;;;;;;;;13.00;99.50;;;;;;5038201;28;20350;-63
2022/01/14 13:25:04;;;;;;;;;;;13.30;99.70;;;;;;5036306;28;20379;-63
2022/01/14 13:27:31;;;;;;;;;;;13.40;99.80;;;;;;5048196;28;20054;-64
2022/01/14 13:29:58;;;;;;;;;;;13.10;99.60;;;;;;5054523;28;19921;-65
2022/01/14 13:32:24;;;;;;;;;;;;;;;;;;5024690;28;19921;-66
2022/01/14 13:34:50;;;;;;;;;;;;;;;;;;5042330;28;19959;-66
2022/01/14 13:37:16;;;;;;;;;;;13.20;99.70;;;;;;5044566;28;20379;-65
2022/01/14 13:39:42;;;;;;;;;;;13.00;99.70;;;;;;5039936;28;19921;-64
2022/01/14 13:42:20;;;;;;;;;;;13.30;99.80;;;;;;5018426;28;19928;-65
2022/01/14 13:44:46;;;;;;;;;;;;;;;;;;5043426;28;20071;-64
2022/01/14 13:47:18;;;;;;;;;;;13.30;99.80;;;;;;5036412;28;20015;-64
2022/01/14 13:49:44;;;;;;;;;;;;;;;;;;5042091;28;19921;-65
2022/01/14 13:52:13;;;;;;;;;;;;;;;;;;5035521;28;19928;-73
2022/01/14 13:54:39;;;;;;;;;;;13.10;99.90;;;;;;5055372;28;19921;-65
2022/01/14 13:57:05;;;;;;;;;;;;;;;;;;5050910;28;19927;-65
2022/01/14 13:59:32;;;;;;;;;;;13.10;99.90;;;;;;5040620;28;19921;-61
2022/01/14 14:01:59;;;;;;;;;;;13.20;99.90;;;;;;5034630;28;19968;-64
2022/01/14 14:04:27;;;;;;;;;;;13.10;99.90;;;;;;5054302;28;19928;-67
2022/01/14 14:07:08;;;;;;;;;;;13.10;99.90;;;;;;5054996;28;19921;-65
2022/01/14 14:10:07;;;;;;;;;;;13.20;99.90;;;;;;5052077;28;20003;-61
2022/01/14 14:13:07;;;;;;;;;;;;;;;;;;5047490;28;19929;-65
2022/01/14 14:18:04;;;;;;;;;;;13.40;99.90;;;;;;5038023;28;20004;-66
2022/01/14 14:20:29;;;;;;;;;;;13.10;99.90;;;;;;5042141;28;19944;-64
2022/01/14 14:22:55;;;;;;;;;;;13.40;99.90;;;;;;5039848;28;19928;-66
2022/01/14 14:25:29;;;;;;;;;;;13.20;99.90;;;;;;5050356;28;19921;-65
2022/01/14 14:28:02;;;;;;;;;;;13.20;99.90;;;;;;5054318;28;19967;-68
2022/01/14 14:30:50;;;;;;;;;;;13.10;99.80;;;;;;5067609;28;19924;-68
2022/01/14 14:33:16;;;;;;;;;;;13.20;99.80;;;;;;5043895;28;19970;-63
2022/01/14 14:35:42;;;;;;;;;;;13.00;99.80;;;;;;5058785;28;19916;-67
2022/01/14 14:38:11;;;;;;;;;;;13.20;99.60;;;;;;5065653;28;19920;-65
2022/01/14 14:40:37;;;;;;;;;;;13.10;99.80;;;;;;5062375;28;20457;-67
2022/01/14 14:43:05;;;;;;;;;;;13.20;99.80;;;;;;5054570;28;19971;-67
2022/01/14 14:45:30;;;;;;;;;;;13.20;99.80;;;;;;5051304;28;19934;-65
2022/01/14 14:47:56;;;;;;;;;;;13.10;99.70;;;;;;5053325;28;20011;-66
2022/01/14 14:50:22;;;;;;;;;;;13.10;99.80;;;;;;5054685;28;19921;-69
2022/01/14 14:52:48;;;;;;;;;;;13.20;99.80;;;;;;5032741;28;19966;-70
2022/01/14 14:55:16;;;;;;;;;;;13.20;99.90;;;;;;5045084;28;19980;-68
2022/01/14 14:57:44;;;;;;;;;;;13.10;99.90;;;;;;5045191;28;19924;-70
2022/01/14 15:00:10;;;;;;;;;;;13.60;99.90;;;;;;5053691;28;19928;-65
2022/01/14 15:02:42;;;;;;;;;;;13.30;99.90;;;;;;5054519;28;19921;-65
2022/01/14 15:05:07;;;;;;;;;;;13.30;99.80;;;;;;5049832;28;19928;-64
2022/01/14 15:07:33;;;;;;;;;;;13.10;99.90;;;;;;5054096;28;20298;-63
2022/01/14 15:09:59;;;;;;;;;;;13.40;99.90;;;;;;5037311;28;20004;-64